createdAt,value
2019-04-09T00:00:26.521Z,50.05
2019-04-09T00:03:00.844Z,49.94
2019-04-09T00:05:27.447Z,50.20
2019-04-09T00:08:01.827Z,50.18
2019-04-09T00:10:22.481Z,50.34
2019-04-09T00:12:48.907Z,50.29
2019-04-09T00:15:15.652Z,50.38
2019-04-09T00:17:42.279Z,50.43
2019-04-09T00:20:08.859Z,50.67
2019-04-09T00:22:35.181Z,50.50
2019-04-09T00:25:02.017Z,50.39
2019-04-09T00:27:28.679Z,50.95
2019-04-09T00:29:56.002Z,50.84
2019-04-09T00:32:22.405Z,51.08
2019-04-09T00:34:48.734Z,51.44
2019-04-09T00:37:15.218Z,51.35
2019-04-09T00:39:41.604Z,52.05
2019-04-09T00:42:08.858Z,52.28
2019-04-09T00:44:35.253Z,52.22
2019-04-09T00:47:01.982Z,52.56
2019-04-09T00:49:28.311Z,53.05
2019-04-09T00:51:55.627Z,53.36
2019-04-09T00:54:22.036Z,53.83
2019-04-09T00:56:58.031Z,54.25
2019-04-09T00:59:17.771Z,54.66
2019-04-09T01:01:44.440Z,54.71
2019-04-09T01:04:11.219Z,54.92
2019-04-09T01:06:37.712Z,55.37
2019-04-09T01:09:08.245Z,55.49
2019-04-09T01:11:35.218Z,55.54
2019-04-09T01:14:01.641Z,56.49
2019-04-09T01:16:27.977Z,55.99
2019-04-09T01:19:02.012Z,56.27
2019-04-09T01:21:23.063Z,56.75
2019-04-09T01:23:49.468Z,57.30
2019-04-09T01:26:32.965Z,57.97
2019-04-09T01:29:18.626Z,58.91
2019-04-09T01:31:48.336Z,58.91
2019-04-09T01:34:34.923Z,58.40
2019-04-09T01:37:20.337Z,58.52
2019-04-09T01:40:05.350Z,58.84
2019-04-09T01:42:37.491Z,58.94
2019-04-09T01:45:26.143Z,58.70
2019-04-09T01:48:03.258Z,58.86
2019-04-09T01:50:48.486Z,59.58
2019-04-09T01:53:27.293Z,59.88
2019-04-09T01:55:58.277Z,59.79
2019-04-09T01:58:29.644Z,59.95
2019-04-09T02:01:10.130Z,60.50
2019-04-09T02:03:38.368Z,60.31
2019-04-09T02:06:12.265Z,60.43
2019-04-09T02:08:57.371Z,60.40
2019-04-09T02:11:31.819Z,60.52
2019-04-09T02:14:16.439Z,60.75
2019-04-09T02:17:02.554Z,60.83
2019-04-09T02:19:31.818Z,60.83
2019-04-09T02:22:01.801Z,60.77
2019-04-09T02:24:30.752Z,61.05
2019-04-09T02:27:05.113Z,61.30
2019-04-09T02:29:33.352Z,61.29
2019-04-09T02:32:07.619Z,61.13
2019-04-09T02:34:48.082Z,61.36
2019-04-09T02:37:34.489Z,61.57
2019-04-09T02:40:03.219Z,61.63
2019-04-09T02:42:47.723Z,61.51
2019-04-09T02:45:33.950Z,61.77
2019-04-09T02:48:15.288Z,62.33
2019-04-09T02:50:44.733Z,62.51
2019-04-09T02:53:25.318Z,62.26
2019-04-09T02:56:18.314Z,62.39
2019-04-09T02:58:59.112Z,62.55
2019-04-09T03:01:25.847Z,63.41
2019-04-09T03:04:06.487Z,63.54
2019-04-09T03:06:50.439Z,63.93
2019-04-09T03:09:21.635Z,63.23
2019-04-09T03:12:06.900Z,63.54
2019-04-09T03:14:44.878Z,63.65
2019-04-09T03:17:19.579Z,64.00
2019-04-09T03:19:51.790Z,64.24
2019-04-09T03:22:23.527Z,64.39
2019-04-09T03:24:59.281Z,64.58
2019-04-09T03:27:36.785Z,64.85
2019-04-09T03:30:16.866Z,65.25
2019-04-09T03:32:48.946Z,64.81
2019-04-09T03:35:15.629Z,65.00
2019-04-09T03:37:46.943Z,65.37
2019-04-09T03:41:28.762Z,65.40
2019-04-09T03:44:19.393Z,65.30
2019-04-09T03:46:47.690Z,66.01
2019-04-09T03:49:16.989Z,65.96
2019-04-09T03:51:51.676Z,65.52
2019-04-09T03:54:37.235Z,65.61
2019-04-09T03:57:22.281Z,65.85
2019-04-09T04:00:08.009Z,65.42
2019-04-09T04:02:48.949Z,66.34
2019-04-09T04:05:20.967Z,66.72
2019-04-09T04:08:04.687Z,66.89
2019-04-09T04:10:35.968Z,66.79
2019-04-09T04:13:22.897Z,66.65
2019-04-09T04:15:55.194Z,67.76
2019-04-09T04:18:32.640Z,67.93
2019-04-09T04:20:59.013Z,67.57
2019-04-09T04:23:36.463Z,67.71
2019-04-09T04:26:20.228Z,67.54
2019-04-09T04:28:48.593Z,66.95
2019-04-09T04:31:17.639Z,67.40
2019-04-09T04:33:56.078Z,67.66
2019-04-09T04:36:30.959Z,67.89
2019-04-09T04:38:59.589Z,68.54
2019-04-09T04:41:40.731Z,67.90
2019-04-09T04:44:25.837Z,68.07
2019-04-09T04:47:10.815Z,69.17
2019-04-09T04:49:39.292Z,70.30
2019-04-09T04:52:21.741Z,70.53
2019-04-09T04:55:08.479Z,70.35
2019-04-09T04:57:46.404Z,71.20
2019-04-09T05:00:33.383Z,70.67
2019-04-09T05:03:11.608Z,70.51
2019-04-09T05:05:40.726Z,70.17
2019-04-09T05:08:09.062Z,70.31
2019-04-09T05:10:51.203Z,69.57
2019-04-09T05:13:20.707Z,70.42
2019-04-09T05:15:50.309Z,70.28
2019-04-09T05:18:35.548Z,70.39
2019-04-09T05:21:21.951Z,69.41
2019-04-09T05:23:56.290Z,68.22
2019-04-09T05:26:24.614Z,67.68
2019-04-09T05:29:10.112Z,67.26
2019-04-09T05:31:41.201Z,67.29
2019-04-09T05:34:13.534Z,66.83
2019-04-09T05:36:53.624Z,66.90
2019-04-09T05:39:26.206Z,66.69
2019-04-09T05:41:52.819Z,67.47
2019-04-09T05:44:23.260Z,66.65
2019-04-09T05:47:08.462Z,66.70
2019-04-09T05:49:36.677Z,67.03
2019-04-09T05:52:08.141Z,66.77
2019-04-09T05:54:53.098Z,66.03
2019-04-09T05:57:30.661Z,65.97
2019-04-09T06:00:03.870Z,65.70
2019-04-09T06:02:32.535Z,65.08
2019-04-09T06:05:10.004Z,66.17
2019-04-09T06:07:38.223Z,65.00
2019-04-09T06:10:06.006Z,65.11
2019-04-09T06:12:33.090Z,64.40
2019-04-09T06:15:00.923Z,63.54
2019-04-09T06:17:27.767Z,63.00
2019-04-09T06:19:54.663Z,63.85
2019-04-09T06:22:21.427Z,64.19
2019-04-09T06:24:48.028Z,63.41
2019-04-09T06:27:14.379Z,62.31
2019-04-09T06:29:40.699Z,62.02
2019-04-09T06:32:12.046Z,62.18
2019-04-09T06:34:40.819Z,62.04
2019-04-09T06:37:26.253Z,61.49
2019-04-09T06:40:12.473Z,60.84
2019-04-09T06:42:50.446Z,61.61
2019-04-09T06:45:21.767Z,61.05
2019-04-09T06:48:02.019Z,59.79
2019-04-09T06:50:45.716Z,58.26
2019-04-09T06:53:31.102Z,58.32
2019-04-09T06:56:03.086Z,58.13
2019-04-09T06:58:48.406Z,57.48
2019-04-09T07:01:17.114Z,56.09
2019-04-09T07:03:46.195Z,56.24
2019-04-09T07:06:12.828Z,55.04
2019-04-09T07:08:45.699Z,56.22
2019-04-09T07:11:21.516Z,56.17
2019-04-09T07:14:00.109Z,56.43
2019-04-09T07:16:45.541Z,56.54
2019-04-09T07:19:14.817Z,56.54
2019-04-09T07:21:55.365Z,55.42
2019-04-09T07:24:29.888Z,53.71
2019-04-09T07:27:07.762Z,52.91
2019-04-09T07:29:50.333Z,52.90
2019-04-09T07:32:11.007Z,53.05
2019-04-09T07:34:56.353Z,55.77
2019-04-09T07:37:28.054Z,55.53
2019-04-09T07:40:01.081Z,53.83
2019-04-09T07:42:49.462Z,52.11
2019-04-09T07:45:22.116Z,51.56
2019-04-09T07:47:52.881Z,51.11
2019-04-09T07:50:23.904Z,52.67
2019-04-09T07:53:09.269Z,50.94
2019-04-09T07:55:40.634Z,52.03
2019-04-09T07:58:19.435Z,52.26
2019-04-09T08:03:51.386Z,50.88
2019-04-09T08:06:22.687Z,50.18
2019-04-09T08:09:06.679Z,50.26
2019-04-09T08:11:36.004Z,50.29
2019-04-09T08:14:04.994Z,48.94
2019-04-09T08:16:44.481Z,47.77
2019-04-09T08:19:30.249Z,47.51
2019-04-09T08:22:01.346Z,46.12
2019-04-09T08:24:42.245Z,45.83
2019-04-09T08:27:15.042Z,45.81
2019-04-09T08:30:14.551Z,45.97
2019-04-09T08:32:29.183Z,46.75
2019-04-09T08:35:16.019Z,47.81
2019-04-09T08:37:56.762Z,46.98
2019-04-09T08:40:43.899Z,45.67
2019-04-09T08:43:20.531Z,45.44
2019-04-09T08:45:48.256Z,45.36
2019-04-09T08:48:34.610Z,47.07
2019-04-09T08:51:04.866Z,46.76
2019-04-09T08:53:34.274Z,45.11
2019-04-09T08:56:06.275Z,44.27
2019-04-09T08:58:39.725Z,46.51
2019-04-09T09:01:48.604Z,45.07
2019-04-09T09:04:00.564Z,45.21
2019-04-09T09:06:47.298Z,45.18
2019-04-09T09:09:12.324Z,45.20
2019-04-09T09:11:40.715Z,44.92
2019-04-09T09:14:09.828Z,44.49
2019-04-09T09:16:54.261Z,46.36
2019-04-09T09:19:28.163Z,47.75
2019-04-09T09:22:11.146Z,47.33
2019-04-09T09:24:39.814Z,44.63
2019-04-09T09:27:26.540Z,43.33
2019-04-09T09:30:11.697Z,42.31
2019-04-09T09:32:48.012Z,41.42
2019-04-09T09:35:21.405Z,40.43
2019-04-09T09:38:06.974Z,40.04
2019-04-09T09:40:35.336Z,39.68
2019-04-09T09:43:03.912Z,40.29
2019-04-09T09:45:32.040Z,41.78
2019-04-09T09:48:07.154Z,40.83
2019-04-09T09:50:38.870Z,39.90
2019-04-09T09:53:06.654Z,39.78
2019-04-09T09:55:54.463Z,40.42
2019-04-09T09:58:33.619Z,39.27
2019-04-09T10:01:11.346Z,39.37
2019-04-09T10:03:31.080Z,38.90
2019-04-09T10:06:13.758Z,39.50
2019-04-09T10:08:43.788Z,38.96
2019-04-09T10:11:11.198Z,37.95
2019-04-09T10:13:46.511Z,38.20
2019-04-09T10:16:16.181Z,38.51
2019-04-09T10:19:10.328Z,38.84
2019-04-09T10:21:49.772Z,38.65
2019-04-09T10:24:38.119Z,37.98
2019-04-09T10:27:22.084Z,37.84
2019-04-09T10:30:09.174Z,37.17
2019-04-09T10:32:54.466Z,38.08
2019-04-09T10:35:34.174Z,36.97
2019-04-09T10:38:03.195Z,36.35
2019-04-09T10:40:37.740Z,35.96
2019-04-09T10:43:11.325Z,35.35
2019-04-09T10:45:58.585Z,34.76
2019-04-09T10:48:30.256Z,35.29
2019-04-09T10:51:11.634Z,35.81
2019-04-09T10:53:45.346Z,35.14
2019-04-09T10:56:19.136Z,36.68
2019-04-09T10:58:57.129Z,35.97
2019-04-09T11:01:45.316Z,35.57
2019-04-09T11:04:15.030Z,34.47
2019-04-09T11:06:49.252Z,34.90
2019-04-09T11:09:30.635Z,35.26
2019-04-09T11:12:02.683Z,34.62
2019-04-09T11:14:31.926Z,34.69
2019-04-09T11:17:06.745Z,33.53
2019-04-09T11:19:35.418Z,34.05
2019-04-09T11:22:03.890Z,34.71
2019-04-09T11:24:50.383Z,34.14
2019-04-09T11:27:24.286Z,33.87
2019-04-09T11:29:52.001Z,33.08
2019-04-09T11:32:20.734Z,32.74
2019-04-09T11:35:04.050Z,32.26
2019-04-09T11:37:33.125Z,32.30
2019-04-09T11:40:10.269Z,30.10
2019-04-09T11:42:56.869Z,27.68
2019-04-09T11:45:43.973Z,26.49
2019-04-09T11:48:19.341Z,25.21
2019-04-09T11:50:57.275Z,24.09
2019-04-09T11:53:30.984Z,22.09
2019-04-09T11:56:15.950Z,20.29
2019-04-09T11:58:44.768Z,18.13
2019-04-09T12:01:17.134Z,17.47
2019-04-09T12:03:48.053Z,18.12
2019-04-09T12:06:28.985Z,18.95
2019-04-09T12:09:04.960Z,17.95
2019-04-09T12:11:36.814Z,16.96
2019-04-09T12:14:18.077Z,15.27
2019-04-09T12:16:49.946Z,15.45
2019-04-09T12:19:36.812Z,15.83
2019-04-09T12:22:23.918Z,14.89
2019-04-09T12:24:57.995Z,14.97
2019-04-09T12:27:32.690Z,13.76
2019-04-09T12:30:07.081Z,13.51
2019-04-09T12:32:38.189Z,12.88
2019-04-09T12:35:06.720Z,12.19
2019-04-09T12:37:48.103Z,12.73
2019-04-09T12:40:31.617Z,12.81
2019-04-09T12:43:13.052Z,13.45
2019-04-09T12:45:53.166Z,13.90
2019-04-09T12:48:24.583Z,13.51
2019-04-09T12:50:56.412Z,13.81
2019-04-09T12:53:40.490Z,12.69
2019-04-09T12:56:11.557Z,11.75
2019-04-09T12:58:43.044Z,11.05
2019-04-09T13:01:16.435Z,13.36
2019-04-09T13:04:01.834Z,13.95
2019-04-09T13:06:31.557Z,13.22
2019-04-09T13:09:07.184Z,13.34
2019-04-09T13:11:52.911Z,13.74
2019-04-09T13:14:31.338Z,13.12
2019-04-09T13:17:16.473Z,12.63
2019-04-09T13:19:47.588Z,12.20
2019-04-09T13:22:26.330Z,12.47
2019-04-09T13:25:13.050Z,12.86
2019-04-09T13:27:58.017Z,11.64
2019-04-09T13:30:25.281Z,11.40
2019-04-09T13:33:06.598Z,12.37
2019-04-09T13:35:46.146Z,12.88
2019-04-09T13:38:28.993Z,13.27
2019-04-09T13:41:00.413Z,13.35
2019-04-09T13:43:34.881Z,12.83
2019-04-09T13:46:06.602Z,12.87
2019-04-09T13:48:40.867Z,12.10
2019-04-09T13:51:28.535Z,11.92
2019-04-09T13:53:55.341Z,10.90
2019-04-09T13:56:23.007Z,10.93
2019-04-09T13:58:49.942Z,11.53
2019-04-09T14:01:16.655Z,11.99
2019-04-09T14:03:57.182Z,11.45
2019-04-09T14:06:23.523Z,11.63
2019-04-09T14:08:50.055Z,11.94
2019-04-09T14:11:16.526Z,13.26
2019-04-09T14:13:44.255Z,12.71
2019-04-09T14:16:11.067Z,12.79
2019-04-09T14:18:38.764Z,13.07
2019-04-09T14:21:06.697Z,13.48
2019-04-09T14:23:34.318Z,13.07
2019-04-09T14:26:00.793Z,12.98
2019-04-09T14:28:27.965Z,12.75
2019-04-09T14:30:54.881Z,13.76
2019-04-09T14:33:21.218Z,15.62
2019-04-09T14:35:47.527Z,15.69
2019-04-09T14:38:15.547Z,14.76
2019-04-09T14:40:41.958Z,13.87
2019-04-09T14:43:08.776Z,13.44
2019-04-09T14:45:36.248Z,13.00
2019-04-09T14:48:04.435Z,13.74
2019-04-09T14:50:31.645Z,14.42
2019-04-09T14:53:01.670Z,13.62
2019-04-09T14:55:29.559Z,14.10
2019-04-09T14:57:55.363Z,14.35
2019-04-09T15:00:22.764Z,14.59
2019-04-09T15:02:49.259Z,14.10
2019-04-09T15:05:16.284Z,15.07
2019-04-09T15:07:42.744Z,14.51
2019-04-09T15:10:09.547Z,15.67
2019-04-09T15:12:37.999Z,17.68
2019-04-09T15:15:07.256Z,18.23
2019-04-09T15:17:35.146Z,18.77
2019-04-09T15:20:04.568Z,18.87
2019-04-09T15:22:32.273Z,17.84
2019-04-09T15:24:59.422Z,17.91
2019-04-09T15:27:25.976Z,16.86
2019-04-09T15:29:52.331Z,16.63
2019-04-09T15:32:19.081Z,17.62
2019-04-09T15:34:45.588Z,18.39
2019-04-09T15:37:12.670Z,19.68
2019-04-09T15:39:39.211Z,21.02
2019-04-09T15:42:06.164Z,21.79
2019-04-09T15:44:33.758Z,23.38
2019-04-09T15:47:00.256Z,24.73
2019-04-09T15:49:26.600Z,25.70
2019-04-09T15:51:52.915Z,26.47
2019-04-09T15:54:19.528Z,27.53
2019-04-09T15:56:46.705Z,27.56
2019-04-09T15:59:13.405Z,29.38
2019-04-09T16:01:39.827Z,29.68
2019-04-09T16:04:07.433Z,30.75
2019-04-09T16:06:34.665Z,32.87
2019-04-09T16:09:02.320Z,33.31
2019-04-09T16:11:31.105Z,33.83
2019-04-09T16:13:57.770Z,35.01
2019-04-09T16:16:24.181Z,35.53
2019-04-09T16:18:50.583Z,36.26
2019-04-09T16:21:19.287Z,37.49
2019-04-09T16:23:45.864Z,37.38
2019-04-09T16:26:12.589Z,38.14
2019-04-09T16:28:40.285Z,38.17
2019-04-09T16:31:10.048Z,38.64
2019-04-09T16:33:36.395Z,38.83
2019-04-09T16:36:03.522Z,39.15
2019-04-09T16:38:30.263Z,39.40
2019-04-09T16:40:56.622Z,39.43
2019-04-09T16:43:24.382Z,39.55
2019-04-09T16:45:50.753Z,40.37
2019-04-09T16:48:17.333Z,40.62
2019-04-09T16:50:44.413Z,40.76
2019-04-09T16:53:11.133Z,40.31
2019-04-09T16:55:38.815Z,41.28
2019-04-09T16:58:08.280Z,41.39
2019-04-09T17:00:34.045Z,41.97
2019-04-09T17:03:00.475Z,42.73
2019-04-09T17:05:26.865Z,42.27
2019-04-09T17:07:53.442Z,42.16
2019-04-09T17:10:20.355Z,42.51
2019-04-09T17:12:48.514Z,42.08
2019-04-09T17:15:15.571Z,42.04
2019-04-09T17:17:42.420Z,42.17
2019-04-09T17:20:10.204Z,42.92
2019-04-09T17:22:37.132Z,43.18
2019-04-09T17:25:05.563Z,43.11
2019-04-09T17:27:32.098Z,43.21
2019-04-09T17:29:59.479Z,43.76
2019-04-09T17:32:25.941Z,43.81
2019-04-09T17:34:52.257Z,44.39
2019-04-09T17:37:18.881Z,44.55
2019-04-09T17:39:45.278Z,44.38
2019-04-09T17:42:14.451Z,43.95
2019-04-09T17:44:41.679Z,44.90
2019-04-09T17:47:09.827Z,44.99
2019-04-09T17:49:37.490Z,45.50
2019-04-09T17:52:03.940Z,45.29
2019-04-09T17:54:30.354Z,45.30
2019-04-09T17:56:56.695Z,44.82
2019-04-09T17:59:23.077Z,45.22
2019-04-09T18:01:49.636Z,45.10
2019-04-09T18:04:16.178Z,45.18
2019-04-09T18:06:42.521Z,44.95
2019-04-09T18:09:08.932Z,45.11
2019-04-09T18:11:35.879Z,44.71
2019-04-09T18:14:02.594Z,44.55
2019-04-09T18:16:29.263Z,44.91
2019-04-09T18:18:56.813Z,45.07
2019-04-09T18:21:23.317Z,45.70
2019-04-09T18:23:50.742Z,46.28
2019-04-09T18:26:17.344Z,46.67
2019-04-09T18:28:44.805Z,46.67
2019-04-09T18:31:22.750Z,47.29
2019-04-09T18:33:40.573Z,47.35
2019-04-09T18:36:07.079Z,47.21
2019-04-09T18:38:33.623Z,47.36
2019-04-09T18:41:00.222Z,47.86
2019-04-09T18:43:26.706Z,48.29
2019-04-09T18:45:53.401Z,48.95
2019-04-09T18:48:30.298Z,49.34
2019-04-09T18:50:48.844Z,49.03
2019-04-09T18:53:16.467Z,49.17
2019-04-09T18:55:44.487Z,49.48
2019-04-09T18:58:11.020Z,49.99
2019-04-09T19:00:38.373Z,50.21
2019-04-09T19:03:06.390Z,50.75
2019-04-09T19:05:33.605Z,51.06
2019-04-09T19:08:00.653Z,51.02
2019-04-09T19:10:27.477Z,51.12
2019-04-09T19:12:54.105Z,51.60
2019-04-09T19:15:21.033Z,51.84
2019-04-09T19:17:47.732Z,52.15
2019-04-09T19:20:19.576Z,52.24
2019-04-09T19:22:46.240Z,52.26
2019-04-09T19:25:13.748Z,52.09
2019-04-09T19:27:41.405Z,52.72
2019-04-09T19:30:09.283Z,52.92
2019-04-09T19:32:35.693Z,52.90
2019-04-09T19:35:17.688Z,52.90
2019-04-09T19:37:33.581Z,52.97
2019-04-09T19:40:09.853Z,53.17
2019-04-09T19:42:36.502Z,53.29
2019-04-09T19:45:06.524Z,54.11
2019-04-09T19:47:37.559Z,53.96
2019-04-09T19:50:05.659Z,53.71
2019-04-09T19:52:33.395Z,54.39
2019-04-09T19:55:06.258Z,54.41
2019-04-09T19:57:32.641Z,54.23
2019-04-09T19:59:59.182Z,54.28
2019-04-09T20:02:26.957Z,55.32
2019-04-09T20:04:53.771Z,55.07
2019-04-09T20:07:20.838Z,55.15
2019-04-09T20:09:50.398Z,55.14
2019-04-09T20:12:17.381Z,55.23
2019-04-09T20:14:45.028Z,55.37
2019-04-09T20:17:12.432Z,55.18
2019-04-09T20:19:39.453Z,55.48
2019-04-09T20:22:05.966Z,55.38
2019-04-09T20:24:33.614Z,55.71
2019-04-09T20:27:01.016Z,56.50
2019-04-09T20:29:27.637Z,56.38
2019-04-09T20:31:54.250Z,56.45
2019-04-09T20:34:20.884Z,56.68
2019-04-09T20:36:47.342Z,57.02
2019-04-09T20:39:13.908Z,57.04
2019-04-09T20:41:40.626Z,57.03
2019-04-09T20:44:07.264Z,56.54
2019-04-09T20:46:33.581Z,57.08
2019-04-09T20:48:59.971Z,57.10
2019-04-09T20:51:26.442Z,57.15
2019-04-09T20:53:54.113Z,57.22
2019-04-09T20:56:20.716Z,57.24
2019-04-09T20:58:47.060Z,57.37
2019-04-09T21:01:18.741Z,57.34
2019-04-09T21:03:57.940Z,57.33
2019-04-09T21:06:18.258Z,57.69
2019-04-09T21:08:45.278Z,57.78
2019-04-09T21:11:12.149Z,57.74
2019-04-09T21:13:39.352Z,57.30
2019-04-09T21:16:06.477Z,57.70
2019-04-09T21:18:33.496Z,57.76
2019-04-09T21:20:59.891Z,58.09
2019-04-09T21:23:26.582Z,57.90
2019-04-09T21:25:53.517Z,57.56
2019-04-09T21:28:21.397Z,57.82
2019-04-09T21:30:48.504Z,57.75
2019-04-09T21:33:15.283Z,58.01
2019-04-09T21:35:42.019Z,58.05
2019-04-09T21:38:09.564Z,57.85
2019-04-09T21:40:36.155Z,58.05
2019-04-09T21:43:03.028Z,57.88
2019-04-09T21:45:30.465Z,58.27
2019-04-09T21:47:57.351Z,58.32
2019-04-09T21:50:25.023Z,58.25
2019-04-09T21:52:51.343Z,58.56
2019-04-09T21:55:17.719Z,58.76
2019-04-09T21:57:44.043Z,58.82
2019-04-09T22:00:47.059Z,58.25
2019-04-09T22:03:16.090Z,58.06
2019-04-09T22:05:42.739Z,58.54
2019-04-09T22:08:09.854Z,58.75
2019-04-09T22:10:36.620Z,58.60
2019-04-09T22:13:03.294Z,58.76
2019-04-09T22:15:29.762Z,58.90
2019-04-09T22:17:57.489Z,58.90
2019-04-09T22:20:25.447Z,59.04
2019-04-09T22:22:51.902Z,59.16
2019-04-09T22:25:18.663Z,58.90
2019-04-09T22:27:45.844Z,59.06
2019-04-09T22:30:12.529Z,59.19
2019-04-09T22:32:38.847Z,59.38
2019-04-09T22:35:05.592Z,59.27
2019-04-09T22:37:32.143Z,59.37
2019-04-09T22:39:59.045Z,59.61
2019-04-09T22:42:26.145Z,59.56
2019-04-09T22:44:53.221Z,59.68
2019-04-09T22:47:19.821Z,59.58
2019-04-09T22:49:46.258Z,59.68
2019-04-09T22:52:12.575Z,59.55
2019-04-09T22:54:39.222Z,60.01
2019-04-09T22:57:05.689Z,60.22
2019-04-09T22:59:33.165Z,60.01
2019-04-09T23:01:59.886Z,59.97
2019-04-09T23:04:44.300Z,59.86
2019-04-09T23:07:18.698Z,60.22
2019-04-09T23:09:47.118Z,61.05
2019-04-09T23:12:19.322Z,61.09
2019-04-09T23:14:46.403Z,60.97
2019-04-09T23:17:13.398Z,60.78
2019-04-09T23:19:39.854Z,60.52
2019-04-09T23:22:06.693Z,60.60
2019-04-09T23:24:33.650Z,60.63
2019-04-09T23:26:59.992Z,60.54
2019-04-09T23:29:26.718Z,60.65
2019-04-09T23:31:53.243Z,60.97
2019-04-09T23:34:19.895Z,61.05
2019-04-09T23:36:57.782Z,61.41
2019-04-09T23:39:15.905Z,61.64
2019-04-09T23:41:42.453Z,61.75
2019-04-09T23:44:10.293Z,61.64
2019-04-09T23:46:37.264Z,62.16
2019-04-09T23:49:04.444Z,61.58
2019-04-09T23:51:31.211Z,61.83
2019-04-09T23:53:57.756Z,62.11
2019-04-09T23:56:25.277Z,62.39
2019-04-09T23:58:51.657Z,62.53
